LFOE 280730Z AUTO 07007KT CAVOK 20/14 Q1017

ElémentsDécodage
LFOE Station météo située sur l'aérodrome de EVREUX Fauville
280730Z émis le 28 du mois à 07h30 UTC
AUTO Bulletin édité par un automate
07007KT vent du 070°, 07 noeuds
CAVOK Ceiling And Visibility OK
- Visibilité de 10 Km ou plus
- Pas de nuage au-dessous de 1500m ou au-dessous de l'altitude minimale du secteur la plus élevée (si>1500m) et absence de CB
- pas de temps présent significatif
20/14 température 20°C, point de rosée 14°C
 soit une humidité relative de 68%
Q1017 la pression au niveau de la mer (QNH) est de 1017 hPa